createdAt,value
2023-05-08T00:01:16.284Z,7.40
2023-05-08T00:03:44.528Z,7.82
2023-05-08T00:06:12.775Z,6.90
2023-05-08T00:08:42.233Z,7.35
2023-05-08T00:11:10.379Z,7.32
2023-05-08T00:13:38.441Z,6.60
2023-05-08T00:16:09.281Z,6.88
2023-05-08T00:18:38.571Z,7.13
2023-05-08T00:21:06.941Z,6.45
2023-05-08T00:23:35.519Z,6.72
2023-05-08T00:26:05.178Z,6.85
2023-05-08T00:28:33.251Z,7.18
2023-05-08T00:31:02.281Z,5.97
2023-05-08T00:33:30.507Z,7.75
2023-05-08T00:36:01.903Z,7.03
2023-05-08T00:38:32.247Z,7.10
2023-05-08T00:41:00.997Z,6.72
2023-05-08T00:43:30.544Z,6.60
2023-05-08T00:46:01.020Z,7.13
2023-05-08T00:48:31.860Z,7.45
2023-05-08T00:51:00.208Z,8.98
2023-05-08T00:53:29.736Z,8.70
2023-05-08T00:55:58.445Z,7.13
2023-05-08T00:58:28.181Z,8.10
2023-05-08T01:00:59.572Z,7.35
2023-05-08T01:03:28.669Z,8.85
2023-05-08T01:05:56.834Z,6.28
2023-05-08T01:08:25.110Z,9.00
2023-05-08T01:11:01.986Z,8.73
2023-05-08T01:13:39.092Z,7.65
2023-05-08T01:16:16.053Z,6.88
2023-05-08T01:18:48.923Z,6.25
2023-05-08T01:21:24.623Z,7.38
2023-05-08T01:24:11.416Z,7.38
2023-05-08T01:27:19.660Z,6.90
2023-05-08T01:30:31.853Z,7.13
2023-05-08T01:33:05.722Z,7.90
2023-05-08T01:35:44.300Z,8.77
2023-05-08T01:38:20.812Z,6.28
2023-05-08T01:40:55.759Z,6.78
2023-05-08T01:43:31.009Z,9.93
2023-05-08T01:46:04.089Z,6.90
2023-05-08T01:48:39.104Z,6.00
2023-05-08T01:51:09.837Z,8.30
2023-05-08T01:53:40.299Z,6.40
2023-05-08T01:56:13.349Z,8.77
2023-05-08T01:58:42.519Z,7.20
2023-05-08T02:01:11.881Z,8.27
2023-05-08T02:03:43.023Z,6.95
2023-05-08T02:06:13.748Z,7.25
2023-05-08T02:08:44.618Z,9.10
2023-05-08T02:11:14.326Z,6.57
2023-05-08T02:13:43.931Z,6.38
2023-05-08T02:16:13.710Z,7.07
2023-05-08T02:18:49.573Z,5.93
2023-05-08T02:21:18.706Z,6.30
2023-05-08T02:23:47.954Z,8.60
2023-05-08T02:26:17.499Z,7.18
2023-05-08T02:28:46.890Z,6.13
2023-05-08T02:31:15.381Z,6.82
2023-05-08T02:33:45.795Z,6.75
2023-05-08T02:36:17.815Z,7.80
2023-05-08T02:38:48.380Z,7.63
2023-05-08T02:41:18.554Z,5.65
2023-05-08T02:43:47.077Z,7.55
2023-05-08T02:46:19.768Z,6.43
2023-05-08T02:48:58.935Z,6.50
2023-05-08T02:51:34.769Z,8.50
2023-05-08T02:54:10.336Z,6.20
2023-05-08T02:56:41.858Z,9.25
2023-05-08T02:59:17.852Z,6.45
2023-05-08T03:01:51.820Z,6.68
2023-05-08T03:04:28.146Z,6.18
2023-05-08T03:06:59.097Z,7.82
2023-05-08T03:09:37.940Z,6.20
2023-05-08T03:12:11.146Z,6.75
2023-05-08T03:14:46.002Z,6.68
2023-05-08T03:17:18.346Z,6.68
2023-05-08T03:19:53.476Z,8.20
2023-05-08T03:22:23.962Z,6.85
2023-05-08T03:24:54.684Z,9.00
2023-05-08T03:27:23.628Z,7.07
2023-05-08T03:29:53.171Z,9.63
2023-05-08T03:32:22.644Z,7.85
2023-05-08T03:34:53.949Z,7.88
2023-05-08T03:37:22.449Z,7.18
2023-05-08T03:39:51.967Z,8.05
2023-05-08T03:42:22.184Z,10.52
2023-05-08T03:44:52.343Z,7.70
2023-05-08T03:47:21.433Z,7.07
2023-05-08T03:49:51.715Z,8.13
2023-05-08T03:52:19.982Z,9.82
2023-05-08T03:54:48.117Z,8.13
2023-05-08T03:57:16.226Z,8.32
2023-05-08T03:59:51.808Z,9.73
2023-05-08T04:02:27.828Z,9.45
2023-05-08T04:05:04.951Z,7.60
2023-05-08T04:07:37.238Z,11.57
2023-05-08T04:10:11.243Z,13.18
2023-05-08T04:12:46.435Z,7.32
2023-05-08T04:15:21.523Z,7.90
2023-05-08T04:17:53.050Z,8.63
2023-05-08T04:20:25.583Z,8.38
2023-05-08T04:22:56.100Z,10.40
2023-05-08T04:25:24.410Z,7.78
2023-05-08T04:27:53.228Z,8.60
2023-05-08T04:30:21.833Z,8.23
2023-05-08T04:32:51.004Z,10.15
2023-05-08T04:35:19.355Z,8.43
2023-05-08T04:37:49.428Z,9.73
2023-05-08T04:40:17.482Z,7.63
2023-05-08T04:42:47.517Z,8.30
2023-05-08T04:45:16.350Z,9.77
2023-05-08T04:47:44.460Z,9.20
2023-05-08T04:50:13.072Z,9.57
2023-05-08T04:52:41.434Z,8.77
2023-05-08T04:55:11.847Z,7.78
2023-05-08T04:57:40.140Z,7.65
2023-05-08T05:00:09.575Z,9.50
2023-05-08T05:02:37.745Z,8.40
2023-05-08T05:05:06.476Z,7.95
2023-05-08T05:07:34.623Z,7.82
2023-05-08T05:10:02.782Z,10.07
2023-05-08T05:12:32.264Z,9.18
2023-05-08T05:15:00.342Z,11.13
2023-05-08T05:17:28.895Z,8.88
2023-05-08T05:19:57.424Z,9.48
2023-05-08T05:22:25.518Z,8.52
2023-05-08T05:24:53.727Z,9.07
2023-05-08T05:27:21.922Z,8.50
2023-05-08T05:29:51.527Z,10.82
2023-05-08T05:32:20.698Z,8.88
2023-05-08T05:34:48.863Z,9.30
2023-05-08T05:37:16.994Z,9.73
2023-05-08T05:39:45.068Z,8.10
2023-05-08T05:42:13.190Z,10.10
2023-05-08T05:44:41.273Z,10.38
2023-05-08T05:47:11.250Z,9.10
2023-05-08T05:49:39.965Z,9.18
2023-05-08T05:52:08.035Z,9.98
2023-05-08T05:54:36.151Z,8.18
2023-05-08T05:57:04.449Z,9.55
2023-05-08T05:59:32.953Z,9.30
2023-05-08T06:02:01.078Z,10.98
2023-05-08T06:04:30.892Z,8.57
2023-05-08T06:06:58.981Z,10.20
2023-05-08T06:09:27.058Z,9.00
2023-05-08T06:11:55.120Z,8.82
2023-05-08T06:14:23.193Z,9.90
2023-05-08T06:16:51.531Z,9.00
2023-05-08T06:19:19.754Z,8.55
2023-05-08T06:21:50.250Z,13.65
2023-05-08T06:24:18.364Z,9.15
2023-05-08T06:26:46.755Z,9.05
2023-05-08T06:29:14.851Z,12.30
2023-05-08T06:31:43.353Z,11.38
2023-05-08T06:34:11.465Z,10.98
2023-05-08T06:36:39.565Z,26.60
2023-05-08T06:39:09.128Z,15.13
2023-05-08T06:41:37.247Z,11.07
2023-05-08T06:44:05.483Z,10.95
2023-05-08T06:46:33.695Z,9.68
2023-05-08T06:49:02.102Z,10.20
2023-05-08T06:51:30.173Z,9.52
2023-05-08T06:53:58.431Z,9.00
2023-05-08T06:56:28.047Z,9.55
2023-05-08T06:59:05.044Z,9.27
2023-05-08T07:01:37.433Z,10.15
2023-05-08T07:04:06.070Z,8.88
2023-05-08T07:06:34.198Z,9.40
2023-05-08T07:09:02.810Z,9.10
2023-05-08T07:11:32.268Z,10.25
2023-05-08T07:14:00.491Z,11.05
2023-05-08T07:16:28.607Z,11.50
2023-05-08T07:18:56.734Z,11.27
2023-05-08T07:21:25.094Z,12.52
2023-05-08T07:23:53.903Z,9.82
2023-05-08T07:26:22.754Z,11.98
2023-05-08T07:28:54.210Z,13.43
2023-05-08T07:31:22.523Z,12.27
2023-05-08T07:33:50.763Z,9.70
2023-05-08T07:36:18.894Z,12.10
2023-05-08T07:38:46.973Z,11.30
2023-05-08T07:41:15.081Z,10.90
2023-05-08T07:43:45.227Z,10.60
2023-05-08T07:46:19.347Z,11.45
2023-05-08T07:48:47.492Z,10.68
2023-05-08T07:51:15.860Z,12.05
2023-05-08T07:53:44.673Z,14.20
2023-05-08T07:56:12.901Z,12.35
2023-05-08T07:58:42.559Z,13.25
2023-05-08T08:01:10.784Z,11.27
2023-05-08T08:03:40.361Z,12.07
2023-05-08T08:06:08.792Z,10.02
2023-05-08T08:08:36.855Z,9.55
2023-05-08T08:11:05.030Z,9.73
2023-05-08T08:13:33.736Z,10.82
2023-05-08T08:16:03.965Z,11.57
2023-05-08T08:18:34.796Z,9.88
2023-05-08T08:21:06.611Z,10.60
2023-05-08T08:23:34.883Z,10.45
2023-05-08T08:26:02.938Z,8.68
2023-05-08T08:28:31.172Z,10.45
2023-05-08T08:30:59.302Z,9.32
2023-05-08T08:33:28.957Z,11.05
2023-05-08T08:35:57.412Z,9.48
2023-05-08T08:38:27.200Z,8.75
2023-05-08T08:40:55.522Z,8.68
2023-05-08T08:43:23.588Z,8.05
2023-05-08T08:45:51.797Z,9.23
2023-05-08T08:48:21.380Z,9.23
2023-05-08T08:50:53.900Z,8.10
2023-05-08T08:53:27.313Z,9.02
2023-05-08T08:55:59.235Z,8.40
2023-05-08T08:58:33.935Z,8.70
2023-05-08T09:01:05.559Z,8.45
2023-05-08T09:03:34.069Z,8.75
2023-05-08T09:06:02.641Z,8.40
2023-05-08T09:08:30.827Z,8.93
2023-05-08T09:11:03.455Z,8.35
2023-05-08T09:13:31.735Z,7.80
2023-05-08T09:16:00.686Z,8.85
2023-05-08T09:18:28.963Z,8.13
2023-05-08T09:20:58.325Z,7.50
2023-05-08T09:23:26.585Z,7.97
2023-05-08T09:25:54.819Z,7.88
2023-05-08T09:28:26.147Z,9.63
2023-05-08T09:30:56.460Z,9.13
2023-05-08T09:33:27.026Z,8.63
2023-05-08T09:35:55.866Z,7.75
2023-05-08T09:38:37.951Z,8.00
2023-05-08T09:41:14.395Z,8.65
2023-05-08T09:43:44.966Z,9.43
2023-05-08T09:46:24.558Z,9.77
2023-05-08T09:48:54.353Z,9.02
2023-05-08T09:51:23.218Z,8.30
2023-05-08T09:53:53.577Z,7.97
2023-05-08T09:56:33.057Z,7.43
2023-05-08T09:59:04.667Z,7.93
2023-05-08T10:01:35.552Z,8.02
2023-05-08T10:04:05.863Z,7.80
2023-05-08T10:06:36.391Z,9.50
2023-05-08T10:09:14.918Z,9.13
2023-05-08T10:11:53.376Z,7.72
2023-05-08T10:14:24.720Z,9.02
2023-05-08T10:16:54.500Z,8.10
2023-05-08T10:19:24.132Z,9.52
2023-05-08T10:21:53.860Z,7.40
2023-05-08T10:24:27.393Z,7.72
2023-05-08T10:27:06.266Z,7.30
2023-05-08T10:29:48.425Z,6.25
2023-05-08T10:32:21.140Z,6.80
2023-05-08T10:34:53.994Z,7.30
2023-05-08T10:37:22.188Z,8.07
2023-05-08T10:39:51.395Z,8.52
2023-05-08T10:42:19.990Z,6.88
2023-05-08T10:44:49.919Z,7.07
2023-05-08T10:47:23.899Z,7.80
2023-05-08T10:50:01.539Z,7.40
2023-05-08T10:52:36.008Z,7.50
2023-05-08T10:55:29.395Z,7.40
2023-05-08T10:58:10.268Z,7.18
2023-05-08T11:01:25.925Z,7.13
2023-05-08T11:03:56.708Z,11.25
2023-05-08T11:06:49.378Z,9.05
2023-05-08T11:09:24.679Z,7.15
2023-05-08T11:12:14.464Z,9.82
2023-05-08T11:14:45.098Z,9.27
2023-05-08T11:17:13.466Z,8.25
2023-05-08T11:19:57.635Z,7.80
2023-05-08T11:22:29.193Z,6.93
2023-05-08T11:25:02.973Z,7.18
2023-05-08T11:28:01.994Z,8.55
2023-05-08T11:30:39.148Z,7.00
2023-05-08T11:33:15.526Z,8.30
2023-05-08T11:35:55.344Z,7.45
2023-05-08T11:38:32.185Z,9.70
2023-05-08T11:41:02.856Z,7.38
2023-05-08T11:43:59.781Z,7.82
2023-05-08T11:46:40.582Z,7.90
2023-05-08T11:49:14.366Z,7.20
2023-05-08T11:51:45.371Z,10.27
2023-05-08T11:54:18.254Z,7.60
2023-05-08T11:56:48.123Z,8.05
2023-05-08T11:59:16.893Z,8.40
2023-05-08T12:01:59.884Z,8.55
2023-05-08T12:04:44.689Z,8.65
2023-05-08T12:07:12.874Z,8.43
2023-05-08T12:09:41.056Z,10.77
2023-05-08T12:12:09.458Z,9.32
2023-05-08T12:14:37.576Z,7.72
2023-05-08T12:17:07.297Z,8.50
2023-05-08T12:19:35.582Z,8.55
2023-05-08T12:22:03.705Z,7.93
2023-05-08T12:24:32.186Z,6.95
2023-05-08T12:27:00.289Z,10.55
2023-05-08T12:29:28.393Z,8.18
2023-05-08T12:31:56.764Z,8.18
2023-05-08T12:34:26.570Z,9.65
2023-05-08T12:37:03.929Z,7.60
2023-05-08T12:39:37.504Z,7.57
2023-05-08T12:42:05.952Z,7.85
2023-05-08T12:44:34.037Z,7.55
2023-05-08T12:47:02.317Z,7.75
2023-05-08T12:49:33.300Z,8.30
2023-05-08T12:52:08.922Z,6.43
2023-05-08T12:54:38.196Z,7.03
2023-05-08T12:57:12.812Z,7.63
2023-05-08T12:59:41.223Z,8.13
2023-05-08T13:02:16.958Z,7.32
2023-05-08T13:04:47.165Z,7.00
2023-05-08T13:07:15.683Z,7.85
2023-05-08T13:09:59.078Z,7.65
2023-05-08T13:14:55.119Z,7.30
2023-05-08T13:17:23.327Z,6.88
2023-05-08T13:19:52.870Z,7.03
2023-05-08T13:22:23.147Z,7.13
2023-05-08T13:24:51.298Z,6.93
2023-05-08T13:27:19.609Z,8.50
2023-05-08T13:29:47.763Z,6.32
2023-05-08T13:32:15.891Z,7.00
2023-05-08T13:34:49.842Z,7.68
2023-05-08T13:37:21.076Z,7.07
2023-05-08T13:39:49.203Z,6.32
2023-05-08T13:42:17.287Z,6.20
2023-05-08T13:44:45.634Z,7.07
2023-05-08T13:47:13.818Z,6.97
2023-05-08T13:49:41.919Z,7.95
2023-05-08T13:52:09.991Z,6.90
2023-05-08T13:54:39.469Z,6.43
2023-05-08T13:57:08.126Z,6.85
2023-05-08T13:59:36.410Z,6.38
2023-05-08T14:02:04.538Z,8.20
2023-05-08T14:04:33.257Z,7.70
2023-05-08T14:07:01.570Z,6.88
2023-05-08T14:09:29.695Z,7.03
2023-05-08T14:11:59.209Z,6.90
2023-05-08T14:14:27.287Z,7.30
2023-05-08T14:16:55.359Z,6.53
2023-05-08T14:19:23.493Z,7.70
2023-05-08T14:21:52.106Z,9.15
2023-05-08T14:24:20.257Z,6.60
2023-05-08T14:26:48.351Z,6.28
2023-05-08T14:29:19.177Z,8.35
2023-05-08T14:31:47.543Z,6.10
2023-05-08T14:34:15.723Z,6.10
2023-05-08T14:36:43.826Z,7.95
2023-05-08T14:39:11.956Z,6.93
2023-05-08T14:41:40.061Z,6.38
2023-05-08T14:44:08.278Z,7.47
2023-05-08T14:46:37.790Z,7.97
2023-05-08T14:49:06.629Z,6.35
2023-05-08T14:51:34.683Z,6.55
2023-05-08T14:54:02.948Z,7.53
2023-05-08T14:56:37.369Z,6.05
2023-05-08T14:59:15.118Z,12.40
2023-05-08T15:01:44.686Z,6.90
2023-05-08T15:04:13.044Z,6.15
2023-05-08T15:06:41.500Z,8.30
2023-05-08T15:09:10.276Z,7.25
2023-05-08T15:11:38.642Z,9.30
2023-05-08T15:14:06.977Z,6.72
2023-05-08T15:16:35.149Z,6.15
2023-05-08T15:19:04.627Z,5.97
2023-05-08T15:21:32.702Z,8.50
2023-05-08T15:24:00.860Z,7.32
2023-05-08T15:26:28.944Z,8.27
2023-05-08T15:28:56.978Z,8.50
2023-05-08T15:31:25.170Z,7.15
2023-05-08T15:33:53.307Z,6.30
2023-05-08T15:36:22.822Z,7.20
2023-05-08T15:38:50.921Z,10.48
2023-05-08T15:41:18.970Z,8.93
2023-05-08T15:43:47.902Z,6.43
2023-05-08T15:46:16.265Z,7.65
2023-05-08T15:48:44.798Z,7.30
2023-05-08T15:51:12.968Z,6.13
2023-05-08T15:53:42.460Z,7.15
2023-05-08T15:56:10.528Z,8.30
2023-05-08T15:58:39.218Z,7.00
2023-05-08T16:01:07.439Z,7.75
2023-05-08T16:03:35.846Z,6.90
2023-05-08T16:06:04.136Z,6.90
2023-05-08T16:08:32.588Z,6.65
2023-05-08T16:11:02.428Z,7.82
2023-05-08T16:13:30.501Z,6.78
2023-05-08T16:16:04.637Z,6.65
2023-05-08T16:18:32.909Z,6.50
2023-05-08T16:21:01.082Z,6.95
2023-05-08T16:23:29.345Z,6.18
2023-05-08T16:25:57.397Z,6.43
2023-05-08T16:28:26.842Z,6.70
2023-05-08T16:30:54.978Z,7.05
2023-05-08T16:33:23.115Z,7.22
2023-05-08T16:35:51.301Z,7.13
2023-05-08T16:38:19.387Z,5.90
2023-05-08T16:40:47.447Z,7.47
2023-05-08T16:43:15.570Z,6.97
2023-05-08T16:45:45.106Z,7.85
2023-05-08T16:48:13.193Z,7.05
2023-05-08T16:50:41.318Z,6.00
2023-05-08T16:53:09.461Z,6.95
2023-05-08T16:55:37.574Z,6.95
2023-05-08T16:58:07.105Z,6.45
2023-05-08T17:00:35.385Z,7.63
2023-05-08T17:03:05.008Z,6.32
2023-05-08T17:05:33.458Z,7.43
2023-05-08T17:08:01.603Z,6.30
2023-05-08T17:10:29.972Z,7.00
2023-05-08T17:12:58.051Z,6.57
2023-05-08T17:15:26.139Z,8.00
2023-05-08T17:17:55.956Z,7.13
2023-05-08T17:20:25.525Z,6.72
2023-05-08T17:22:54.584Z,8.85
2023-05-08T17:25:23.385Z,7.13
2023-05-08T17:27:51.468Z,8.30
2023-05-08T17:30:19.605Z,7.55
2023-05-08T17:32:52.389Z,103.85
2023-05-08T17:35:21.440Z,52.05
2023-05-08T17:37:50.896Z,15.00
2023-05-08T17:40:18.954Z,9.75
2023-05-08T17:42:46.992Z,13.45
2023-05-08T17:45:16.384Z,10.73
2023-05-08T17:47:44.535Z,9.98
2023-05-08T17:50:13.082Z,7.57
2023-05-08T17:52:41.382Z,21.40
2023-05-08T17:55:11.849Z,24.77
2023-05-08T17:57:39.924Z,10.80
2023-05-08T18:00:09.309Z,33.28
2023-05-08T18:02:37.515Z,21.13
2023-05-08T18:05:06.114Z,28.77
2023-05-08T18:07:34.201Z,100.55
2023-05-08T18:10:02.387Z,71.53
2023-05-08T18:12:33.478Z,82.88
2023-05-08T18:15:03.538Z,48.75
2023-05-08T18:17:31.648Z,45.72
2023-05-08T18:19:59.920Z,20.50
2023-05-08T18:22:27.985Z,99.07
2023-05-08T18:24:57.127Z,47.53
2023-05-08T18:27:26.624Z,38.83
2023-05-08T18:29:56.279Z,51.85
2023-05-08T18:32:24.391Z,30.70
2023-05-08T18:34:52.595Z,41.67
2023-05-08T18:37:20.679Z,78.60
2023-05-08T18:39:48.800Z,62.25
2023-05-08T18:42:17.085Z,74.68
2023-05-08T18:44:45.215Z,211.15
2023-05-08T18:47:14.658Z,210.32
2023-05-08T18:49:43.938Z,165.00
2023-05-08T18:52:12.112Z,1203.80
2023-05-08T18:54:40.516Z,1252.88
2023-05-08T18:57:08.609Z,672.78
2023-05-08T18:59:36.861Z,303.15
2023-05-08T19:02:04.971Z,259.27
2023-05-08T19:04:34.453Z,62.20
2023-05-08T19:07:02.616Z,29.45
2023-05-08T19:09:30.739Z,16.15
2023-05-08T19:11:59.051Z,16.15
2023-05-08T19:14:27.138Z,12.35
2023-05-08T19:16:58.249Z,9.77
2023-05-08T19:19:27.592Z,12.38
2023-05-08T19:21:57.509Z,49.95
2023-05-08T19:24:29.797Z,70.57
2023-05-08T19:26:59.003Z,76.07
2023-05-08T19:29:27.341Z,36.63
2023-05-08T19:31:56.441Z,56.55
2023-05-08T19:34:24.797Z,26.83
2023-05-08T19:36:52.915Z,29.52
2023-05-08T19:39:22.408Z,50.20
2023-05-08T19:41:50.556Z,23.80
2023-05-08T19:44:18.650Z,51.50
2023-05-08T19:46:46.776Z,29.00
2023-05-08T19:49:17.274Z,82.05
2023-05-08T19:51:45.725Z,49.83
2023-05-08T19:54:14.195Z,85.47
2023-05-08T19:56:43.706Z,74.55
2023-05-08T19:59:11.992Z,90.57
2023-05-08T20:01:40.378Z,137.40
2023-05-08T20:04:08.671Z,74.45
2023-05-08T20:06:38.348Z,67.85
2023-05-08T20:09:06.881Z,56.53
2023-05-08T20:11:35.030Z,29.52
2023-05-08T20:14:04.576Z,54.30
2023-05-08T20:16:32.745Z,115.22
2023-05-08T20:19:01.685Z,191.05
2023-05-08T20:21:32.357Z,291.80
2023-05-08T20:24:00.656Z,176.43
2023-05-08T20:26:29.398Z,280.90
2023-05-08T20:28:57.688Z,180.07
2023-05-08T20:31:27.881Z,168.77
2023-05-08T20:33:56.046Z,65.38
2023-05-08T20:36:24.166Z,52.67
2023-05-08T20:38:52.333Z,65.20
2023-05-08T20:41:20.524Z,26.63
2023-05-08T20:43:48.592Z,53.38
2023-05-08T20:46:16.935Z,37.28
2023-05-08T20:48:46.503Z,25.27
2023-05-08T20:51:15.934Z,23.35
2023-05-08T20:53:44.175Z,17.70
2023-05-08T20:56:15.721Z,12.40
2023-05-08T20:58:46.097Z,14.82
2023-05-08T21:01:14.215Z,10.10
2023-05-08T21:03:42.488Z,12.15
2023-05-08T21:06:12.287Z,10.05
2023-05-08T21:08:40.418Z,9.80
2023-05-08T21:11:08.534Z,10.30
2023-05-08T21:13:36.626Z,10.13
2023-05-08T21:16:05.679Z,10.98
2023-05-08T21:18:33.765Z,10.13
2023-05-08T21:21:01.870Z,11.85
2023-05-08T21:23:31.551Z,9.82
2023-05-08T21:25:59.680Z,13.65
2023-05-08T21:28:27.731Z,11.05
2023-05-08T21:30:55.821Z,10.05
2023-05-08T21:33:23.925Z,12.68
2023-05-08T21:35:52.087Z,10.07
2023-05-08T21:38:20.143Z,12.23
2023-05-08T21:40:49.681Z,13.18
2023-05-08T21:43:17.753Z,11.77
2023-05-08T21:45:46.093Z,12.02
2023-05-08T21:48:14.171Z,14.15
2023-05-08T21:50:42.243Z,12.75
2023-05-08T21:53:10.346Z,15.02
2023-05-08T21:55:38.422Z,12.10
2023-05-08T21:58:07.954Z,11.77
2023-05-08T22:00:36.022Z,11.57
2023-05-08T22:03:04.165Z,12.40
2023-05-08T22:05:32.369Z,17.05
2023-05-08T22:08:00.442Z,14.68
2023-05-08T22:10:28.646Z,15.55
2023-05-08T22:12:56.817Z,15.15
2023-05-08T22:15:30.313Z,12.27
2023-05-08T22:17:59.329Z,11.15
2023-05-08T22:20:27.663Z,13.15
2023-05-08T22:22:55.856Z,13.18
2023-05-08T22:25:25.228Z,13.32
2023-05-08T22:27:53.418Z,14.80
2023-05-08T22:30:21.989Z,15.00
2023-05-08T22:32:55.996Z,14.73
2023-05-08T22:35:25.301Z,13.65
2023-05-08T22:37:53.810Z,12.60
2023-05-08T22:40:22.241Z,14.57
2023-05-08T22:42:53.396Z,14.05
2023-05-08T22:45:21.739Z,13.20
2023-05-08T22:47:51.608Z,14.73
2023-05-08T22:50:19.893Z,13.68
2023-05-08T22:52:48.002Z,13.30
2023-05-08T22:55:16.910Z,13.05
2023-05-08T22:57:45.286Z,13.88
2023-05-08T23:00:15.296Z,12.73
2023-05-08T23:02:43.408Z,12.75
2023-05-08T23:05:13.255Z,16.50
2023-05-08T23:07:41.999Z,14.05
2023-05-08T23:10:10.804Z,15.63
2023-05-08T23:12:38.882Z,14.25
2023-05-08T23:15:08.170Z,14.27
2023-05-08T23:17:36.352Z,13.57
2023-05-08T23:20:05.815Z,16.45
2023-05-08T23:22:35.314Z,13.65
2023-05-08T23:25:03.535Z,16.65
2023-05-08T23:27:31.596Z,14.70
2023-05-08T23:29:59.649Z,12.98
2023-05-08T23:32:27.763Z,12.95
2023-05-08T23:34:55.885Z,11.88
2023-05-08T23:37:23.998Z,14.15
2023-05-08T23:39:53.511Z,12.50
2023-05-08T23:42:21.690Z,13.38
2023-05-08T23:44:49.773Z,11.77
2023-05-08T23:47:19.366Z,11.57
2023-05-08T23:49:47.476Z,12.57
2023-05-08T23:52:15.676Z,11.55
2023-05-08T23:54:43.868Z,11.57
2023-05-08T23:57:13.384Z,12.80
2023-05-08T23:59:41.638Z,12.68
